createdAt,value
2022-10-10T00:00:14.575Z,8.78
2022-10-10T00:01:14.594Z,8.94
2022-10-10T00:02:14.599Z,8.39
2022-10-10T00:03:14.570Z,8.5
2022-10-10T00:04:14.574Z,8.61
2022-10-10T00:05:14.577Z,8.78
2022-10-10T00:06:14.595Z,8.78
2022-10-10T00:07:14.574Z,8.78
2022-10-10T00:08:14.577Z,8.94
2022-10-10T00:09:14.577Z,8.78
2022-10-10T00:10:14.576Z,8.94
2022-10-10T00:11:14.570Z,8.78
2022-10-10T00:12:14.577Z,8.61
2022-10-10T00:13:14.574Z,9.06
2022-10-10T00:14:14.572Z,8.78
2022-10-10T00:15:14.586Z,9.06
2022-10-10T00:16:14.579Z,9.5
2022-10-10T00:17:14.584Z,9.22
2022-10-10T00:18:14.593Z,9.06
2022-10-10T00:19:14.589Z,9.06
2022-10-10T00:20:14.587Z,9.22
2022-10-10T00:21:14.587Z,9.06
2022-10-10T00:22:14.620Z,9.06
2022-10-10T00:23:14.587Z,8.94
2022-10-10T00:24:14.599Z,9.06
2022-10-10T00:25:14.592Z,8.94
2022-10-10T00:26:18.740Z,8.94
2022-10-10T00:27:14.593Z,9.22
2022-10-10T00:28:14.657Z,9.22
2022-10-10T00:29:14.594Z,8.78
2022-10-10T00:30:14.594Z,9.06
2022-10-10T00:31:14.601Z,8.78
2022-10-10T00:32:14.607Z,8.94
2022-10-10T00:33:14.601Z,8.94
2022-10-10T00:34:14.604Z,9.22
2022-10-10T00:35:14.611Z,9.06
2022-10-10T00:36:14.602Z,9.22
2022-10-10T00:37:14.603Z,9.22
2022-10-10T00:38:14.633Z,9.06
2022-10-10T00:39:14.615Z,8.94
2022-10-10T00:40:14.609Z,9.39
2022-10-10T00:41:14.607Z,9.39
2022-10-10T00:42:14.613Z,9.22
2022-10-10T00:43:14.611Z,8.94
2022-10-10T00:44:14.624Z,9.22
2022-10-10T00:45:14.621Z,9.39
2022-10-10T00:46:14.615Z,9.39
2022-10-10T00:47:14.623Z,9.22
2022-10-10T00:48:14.626Z,9.39
2022-10-10T00:49:14.630Z,9.39
2022-10-10T00:50:14.627Z,8.94
2022-10-10T00:51:14.616Z,9.22
2022-10-10T00:52:14.622Z,9.5
2022-10-10T00:53:14.631Z,9.22
2022-10-10T00:54:14.652Z,9.06
2022-10-10T00:55:14.638Z,9.22
2022-10-10T00:56:14.635Z,9.22
2022-10-10T00:57:14.640Z,9.39
2022-10-10T00:58:14.633Z,9.39
2022-10-10T00:59:14.639Z,9.22
2022-10-10T01:00:14.644Z,9.39
2022-10-10T01:01:14.679Z,9.39
2022-10-10T01:02:14.642Z,9.39
2022-10-10T01:03:14.646Z,9.67
2022-10-10T01:04:14.669Z,9.5
2022-10-10T01:05:14.653Z,9.39
2022-10-10T01:06:14.650Z,9.06
2022-10-10T01:07:14.649Z,9.06
2022-10-10T01:08:14.649Z,8.78
2022-10-10T01:09:14.647Z,8.94
2022-10-10T01:10:14.671Z,8.78
2022-10-10T01:11:14.661Z,8.94
2022-10-10T01:12:14.689Z,8.78
2022-10-10T01:13:14.657Z,8.78
2022-10-10T01:14:14.662Z,8.94
2022-10-10T01:15:14.663Z,9.06
2022-10-10T01:16:14.666Z,9.22
2022-10-10T01:17:14.662Z,9.22
2022-10-10T01:18:14.664Z,9.22
2022-10-10T01:19:14.667Z,9.06
2022-10-10T01:20:14.672Z,9.22
2022-10-10T01:21:14.672Z,9.39
2022-10-10T01:22:14.672Z,9.39
2022-10-10T01:23:14.673Z,9.39
2022-10-10T01:24:14.670Z,9.22
2022-10-10T01:25:14.675Z,9.22
2022-10-10T01:26:14.696Z,8.61
2022-10-10T01:27:14.675Z,9.39
2022-10-10T01:28:14.692Z,9.22
2022-10-10T01:29:14.671Z,9.22
2022-10-10T01:30:14.682Z,9.22
2022-10-10T01:31:14.688Z,9.22
2022-10-10T01:32:14.685Z,9.22
2022-10-10T01:33:14.694Z,9.22
2022-10-10T01:34:14.686Z,9.06
2022-10-10T01:35:14.686Z,9.22
2022-10-10T01:36:14.685Z,9.06
2022-10-10T01:37:14.691Z,9.06
2022-10-10T01:38:14.700Z,9.06
2022-10-10T01:39:14.692Z,9.22
2022-10-10T01:40:14.702Z,9.22
2022-10-10T01:41:14.696Z,9.67
2022-10-10T01:42:14.714Z,9.5
2022-10-10T01:43:14.706Z,9.39
2022-10-10T01:44:14.700Z,9.67
2022-10-10T01:45:14.702Z,9.22
2022-10-10T01:46:14.706Z,9.39
2022-10-10T01:47:14.708Z,9.22
2022-10-10T01:48:14.705Z,9.39
2022-10-10T01:49:14.712Z,9.22
2022-10-10T01:50:14.717Z,9.22
2022-10-10T01:51:14.710Z,9.22
2022-10-10T01:52:14.713Z,9.06
2022-10-10T01:53:14.720Z,9.22
2022-10-10T01:54:14.721Z,9.22
2022-10-10T01:55:14.713Z,9.39
2022-10-10T01:56:14.721Z,9.39
2022-10-10T01:57:14.723Z,9.5
2022-10-10T01:58:14.737Z,9.39
2022-10-10T01:59:14.724Z,9.22
2022-10-10T02:00:14.726Z,9.5
2022-10-10T02:01:14.740Z,9.5
2022-10-10T02:02:14.719Z,9.39
2022-10-10T02:03:14.734Z,9.39
2022-10-10T02:04:14.728Z,9.39
2022-10-10T02:05:14.739Z,9.67
2022-10-10T02:06:14.728Z,9.22
2022-10-10T02:07:14.739Z,9.5
2022-10-10T02:08:14.729Z,8.94
2022-10-10T02:09:14.726Z,9.5
2022-10-10T02:10:14.733Z,9.67
2022-10-10T02:11:14.725Z,9.67
2022-10-10T02:12:14.732Z,9.5
2022-10-10T02:13:14.728Z,9.39
2022-10-10T02:14:14.752Z,9.22
2022-10-10T02:15:14.742Z,9.5
2022-10-10T02:16:14.732Z,9.39
2022-10-10T02:17:14.731Z,9.5
2022-10-10T02:18:14.728Z,9.39
2022-10-10T02:19:14.740Z,9.5
2022-10-10T02:20:14.748Z,9.5
2022-10-10T02:21:14.737Z,9.06
2022-10-10T02:22:14.738Z,9.39
2022-10-10T02:23:14.743Z,9.5
2022-10-10T02:24:14.742Z,9.22
2022-10-10T02:25:14.751Z,9.39
2022-10-10T02:26:14.746Z,9.22
2022-10-10T02:27:14.747Z,9.67
2022-10-10T02:28:14.802Z,9.5
2022-10-10T02:29:14.742Z,9.22
2022-10-10T02:30:14.775Z,9.39
2022-10-10T02:31:14.756Z,9.67
2022-10-10T02:32:14.748Z,9.67
2022-10-10T02:33:14.754Z,9.39
2022-10-10T02:34:14.747Z,9.5
2022-10-10T02:35:14.766Z,9.67
2022-10-10T02:36:14.748Z,9.67
2022-10-10T02:37:14.748Z,9.67
2022-10-10T02:38:14.761Z,9.5
2022-10-10T02:39:14.769Z,9.67
2022-10-10T02:40:14.751Z,9.67
2022-10-10T02:41:14.765Z,9.67
2022-10-10T02:42:14.761Z,9.67
2022-10-10T02:43:14.759Z,9.5
2022-10-10T02:44:14.754Z,9.67
2022-10-10T02:45:14.759Z,9.67
2022-10-10T02:46:14.777Z,9.5
2022-10-10T02:47:14.767Z,9.67
2022-10-10T02:48:14.763Z,9.67
2022-10-10T02:49:14.767Z,9.5
2022-10-10T02:50:14.762Z,9.5
2022-10-10T02:51:14.768Z,9.39
2022-10-10T02:52:14.766Z,9.67
2022-10-10T02:53:14.764Z,9.67
2022-10-10T02:54:14.770Z,9.67
2022-10-10T02:55:14.771Z,9.5
2022-10-10T02:56:14.762Z,9.67
2022-10-10T02:57:14.774Z,9.67
2022-10-10T02:58:14.770Z,9.5
2022-10-10T02:59:14.770Z,9.39
2022-10-10T03:00:14.764Z,9.5
2022-10-10T03:01:14.833Z,9.5
2022-10-10T03:02:14.854Z,9.22
2022-10-10T03:03:14.763Z,9.67
2022-10-10T03:04:14.773Z,9.39
2022-10-10T03:05:14.767Z,9.39
2022-10-10T03:06:14.767Z,9.06
2022-10-10T03:07:14.779Z,9.5
2022-10-10T03:08:14.773Z,9.67
2022-10-10T03:09:14.776Z,9.67
2022-10-10T03:10:14.769Z,9.67
2022-10-10T03:11:14.764Z,9.5
2022-10-10T03:12:14.777Z,9.67
2022-10-10T03:13:14.774Z,9.67
2022-10-10T03:14:14.779Z,9.39
2022-10-10T03:15:14.773Z,9.67
2022-10-10T03:16:14.769Z,9.67
2022-10-10T03:17:14.783Z,9.67
2022-10-10T03:18:14.798Z,9.67
2022-10-10T03:19:14.774Z,9.67
2022-10-10T03:20:14.770Z,9.67
2022-10-10T03:21:14.785Z,9.67
2022-10-10T03:22:14.773Z,9.39
2022-10-10T03:23:14.781Z,9.67
2022-10-10T03:24:14.772Z,9.67
2022-10-10T03:25:14.774Z,9.67
2022-10-10T03:26:14.779Z,9.67
2022-10-10T03:27:14.776Z,9.67
2022-10-10T03:28:14.810Z,9.67
2022-10-10T03:29:14.788Z,9.67
2022-10-10T03:30:14.788Z,9.5
2022-10-10T03:31:14.788Z,9.5
2022-10-10T03:32:14.786Z,9.22
2022-10-10T03:33:14.788Z,9.39
2022-10-10T03:34:14.810Z,9.5
2022-10-10T03:35:14.801Z,9.22
2022-10-10T03:36:14.802Z,9.39
2022-10-10T03:37:14.806Z,9.22
2022-10-10T03:38:14.796Z,9.06
2022-10-10T03:39:14.801Z,9.22
2022-10-10T03:40:14.802Z,9.06
2022-10-10T03:41:14.803Z,9.39
2022-10-10T03:42:14.805Z,9.39
2022-10-10T03:43:14.804Z,8.94
2022-10-10T03:44:14.803Z,9.39
2022-10-10T03:45:14.809Z,9.22
2022-10-10T03:46:16.344Z,9.5
2022-10-10T03:47:14.809Z,9.67
2022-10-10T03:48:14.812Z,9.39
2022-10-10T03:49:14.812Z,9.67
2022-10-10T03:50:14.833Z,9.5
2022-10-10T03:51:14.826Z,9.39
2022-10-10T03:52:14.814Z,9.5
2022-10-10T03:53:14.815Z,9.5
2022-10-10T03:54:14.812Z,9.5
2022-10-10T03:55:14.820Z,9.5
2022-10-10T03:56:14.814Z,9.67
2022-10-10T03:57:14.826Z,9.22
2022-10-10T03:58:14.826Z,9.67
2022-10-10T03:59:14.823Z,9.22
2022-10-10T04:00:14.828Z,9.5
2022-10-10T04:01:14.907Z,9.67
2022-10-10T04:02:14.819Z,9.67
2022-10-10T04:03:14.824Z,9.5
2022-10-10T04:04:14.825Z,9.67
2022-10-10T04:05:14.837Z,9.5
2022-10-10T04:06:14.860Z,9.5
2022-10-10T04:07:14.826Z,9.39
2022-10-10T04:08:14.826Z,9.5
2022-10-10T04:09:14.838Z,9.67
2022-10-10T04:10:14.828Z,9.67
2022-10-10T04:11:14.838Z,9.5
2022-10-10T04:12:14.839Z,9.5
2022-10-10T04:13:14.830Z,9.22
2022-10-10T04:14:14.840Z,9.06
2022-10-10T04:15:14.838Z,9.22
2022-10-10T04:16:14.846Z,9.39
2022-10-10T04:17:14.828Z,9.5
2022-10-10T04:18:14.840Z,9.39
2022-10-10T04:19:14.839Z,9.39
2022-10-10T04:20:14.836Z,9.06
2022-10-10T04:21:14.844Z,9.5
2022-10-10T04:22:14.867Z,9.5
2022-10-10T04:23:14.844Z,9.5
2022-10-10T04:24:14.844Z,9.67
2022-10-10T04:25:14.860Z,9.5
2022-10-10T04:26:14.856Z,9.67
2022-10-10T04:27:14.853Z,9.5
2022-10-10T04:28:14.872Z,9.67
2022-10-10T04:29:14.859Z,9.39
2022-10-10T04:30:14.849Z,8.94
2022-10-10T04:31:14.855Z,9.22
2022-10-10T04:32:14.856Z,9.5
2022-10-10T04:33:14.858Z,9.39
2022-10-10T04:34:14.851Z,9.22
2022-10-10T04:35:14.855Z,9.39
2022-10-10T04:36:14.858Z,9.06
2022-10-10T04:37:14.862Z,9.39
2022-10-10T04:38:14.880Z,9.39
2022-10-10T04:39:14.860Z,9.06
2022-10-10T04:40:14.857Z,9.39
2022-10-10T04:41:14.858Z,9.22
2022-10-10T04:42:14.869Z,9.39
2022-10-10T04:43:14.866Z,9.22
2022-10-10T04:44:14.862Z,8.94
2022-10-10T04:45:14.862Z,9.5
2022-10-10T04:46:14.864Z,9.22
2022-10-10T04:47:14.866Z,9.06
2022-10-10T04:48:14.864Z,9.39
2022-10-10T04:49:14.872Z,9.39
2022-10-10T04:50:14.872Z,9.22
2022-10-10T04:51:14.874Z,8.94
2022-10-10T04:52:14.878Z,8.94
2022-10-10T04:53:14.878Z,9.22
2022-10-10T04:54:14.917Z,8.94
2022-10-10T04:55:14.880Z,9.22
2022-10-10T04:56:14.877Z,9.22
2022-10-10T04:57:14.884Z,9.06
2022-10-10T04:58:14.888Z,8.94
2022-10-10T04:59:14.883Z,8.78
2022-10-10T05:00:14.885Z,9.06
2022-10-10T05:01:14.956Z,9.22
2022-10-10T05:02:14.875Z,9.06
2022-10-10T05:03:14.884Z,8.78
2022-10-10T05:04:14.886Z,9.22
2022-10-10T05:05:14.895Z,9.06
2022-10-10T05:06:14.894Z,9.06
2022-10-10T05:07:14.892Z,8.94
2022-10-10T05:08:14.900Z,9.22
2022-10-10T05:09:14.901Z,9.06
2022-10-10T05:10:14.919Z,9.06
2022-10-10T05:11:14.901Z,8.94
2022-10-10T05:12:14.902Z,9.22
2022-10-10T05:13:14.902Z,9.22
2022-10-10T05:14:14.910Z,9.06
2022-10-10T05:15:14.915Z,9.06
2022-10-10T05:16:14.906Z,9.06
2022-10-10T05:17:14.907Z,8.78
2022-10-10T05:18:14.908Z,8.78
2022-10-10T05:19:14.911Z,8.94
2022-10-10T05:20:14.910Z,8.78
2022-10-10T05:21:14.910Z,8.94
2022-10-10T05:22:14.915Z,8.94
2022-10-10T05:23:14.913Z,8.94
2022-10-10T05:24:14.915Z,9.06
2022-10-10T05:25:14.915Z,8.61
2022-10-10T05:26:14.938Z,8.78
2022-10-10T05:27:14.909Z,8.61
2022-10-10T05:28:14.965Z,8.94
2022-10-10T05:29:14.919Z,8.61
2022-10-10T05:30:14.918Z,8.78
2022-10-10T05:31:14.921Z,8.94
2022-10-10T05:32:14.917Z,9.06
2022-10-10T05:33:14.928Z,9.22
2022-10-10T05:34:14.926Z,9.06
2022-10-10T05:35:14.922Z,9.06
2022-10-10T05:36:14.929Z,9.06
2022-10-10T05:37:14.938Z,9.22
2022-10-10T05:38:14.932Z,8.94
2022-10-10T05:39:14.930Z,8.94
2022-10-10T05:40:14.927Z,8.94
2022-10-10T05:41:14.935Z,9.22
2022-10-10T05:42:15.006Z,8.94
2022-10-10T05:43:14.931Z,9.06
2022-10-10T05:44:14.937Z,9.06
2022-10-10T05:45:14.941Z,9.22
2022-10-10T05:46:14.945Z,9.06
2022-10-10T05:47:14.942Z,9.22
2022-10-10T05:48:14.944Z,9.22
2022-10-10T05:49:14.947Z,9.22
2022-10-10T05:50:14.947Z,9.06
2022-10-10T05:51:14.950Z,9.22
2022-10-10T05:52:14.952Z,9.06
2022-10-10T05:53:14.951Z,9.22
2022-10-10T05:54:14.960Z,8.94
2022-10-10T05:55:14.948Z,8.94
2022-10-10T05:56:14.962Z,8.94
2022-10-10T05:57:16.441Z,9.06
2022-10-10T05:58:14.983Z,8.78
2022-10-10T05:59:14.954Z,9.22
2022-10-10T06:00:14.965Z,9.22
2022-10-10T06:01:14.964Z,9.39
2022-10-10T06:02:15.020Z,9.22
2022-10-10T06:03:14.953Z,9.22
2022-10-10T06:04:14.968Z,9.06
2022-10-10T06:05:14.968Z,9.39
2022-10-10T06:06:14.962Z,9.22
2022-10-10T06:07:14.977Z,9.5
2022-10-10T06:08:14.971Z,9.5
2022-10-10T06:09:14.968Z,9.5
2022-10-10T06:10:14.985Z,9.39
2022-10-10T06:11:14.974Z,9.67
2022-10-10T06:12:14.972Z,9.5
2022-10-10T06:13:14.969Z,9.5
2022-10-10T06:14:15.061Z,9.06
2022-10-10T06:15:14.986Z,9.39
2022-10-10T06:16:14.976Z,9.39
2022-10-10T06:17:14.979Z,9.67
2022-10-10T06:18:14.977Z,9.06
2022-10-10T06:19:15.335Z,9.5
2022-10-10T06:20:14.981Z,9.39
2022-10-10T06:21:14.981Z,9.39
2022-10-10T06:22:14.980Z,9.39
2022-10-10T06:23:14.985Z,9.22
2022-10-10T06:24:14.983Z,9.39
2022-10-10T06:25:29.293Z,9.39
2022-10-10T06:26:14.985Z,9.22
2022-10-10T06:27:14.986Z,9.39
2022-10-10T06:28:15.022Z,9.22
2022-10-10T06:29:14.983Z,9.5
2022-10-10T06:30:15.002Z,9.67
2022-10-10T06:31:14.988Z,9.22
2022-10-10T06:32:14.990Z,9.39
2022-10-10T06:33:14.994Z,9.22
2022-10-10T06:34:14.995Z,9.5
2022-10-10T06:35:14.987Z,9.39
2022-10-10T06:36:14.988Z,9.22
2022-10-10T06:37:14.999Z,9.22
2022-10-10T06:38:15.003Z,9.22
2022-10-10T06:39:15.006Z,9.22
2022-10-10T06:40:14.987Z,9.22
2022-10-10T06:41:14.996Z,9.06
2022-10-10T06:42:14.997Z,9.39
2022-10-10T06:43:14.999Z,9.39
2022-10-10T06:44:15.006Z,8.5
2022-10-10T06:45:15.000Z,9.22
2022-10-10T06:46:15.022Z,8.78
2022-10-10T06:47:15.004Z,9.5
2022-10-10T06:48:15.014Z,9.5
2022-10-10T06:49:15.004Z,9.22
2022-10-10T06:50:15.016Z,9.39
2022-10-10T06:51:15.008Z,9.5
2022-10-10T06:52:14.996Z,9.67
2022-10-10T06:53:15.003Z,9.5
2022-10-10T06:54:14.994Z,9.67
2022-10-10T06:55:15.009Z,9.94
2022-10-10T06:56:15.007Z,9.94
2022-10-10T06:57:15.018Z,9.5
2022-10-10T06:58:15.020Z,9.78
2022-10-10T06:59:15.010Z,9.94
2022-10-10T07:00:15.022Z,9.94
2022-10-10T07:01:15.037Z,9.67
2022-10-10T07:02:15.034Z,9.78
2022-10-10T07:03:15.012Z,9.94
2022-10-10T07:04:15.019Z,9.94
2022-10-10T07:05:15.019Z,9.94
2022-10-10T07:06:15.011Z,9.78
2022-10-10T07:07:15.019Z,9.78
2022-10-10T07:08:15.016Z,10.11
2022-10-10T07:09:15.017Z,9.78
2022-10-10T07:10:15.022Z,10.11
2022-10-10T07:11:15.022Z,10.11
2022-10-10T07:12:15.020Z,10.11
2022-10-10T07:13:15.026Z,10.11
2022-10-10T07:14:15.025Z,10.11
2022-10-10T07:15:15.018Z,10.11
2022-10-10T07:16:15.025Z,10.11
2022-10-10T07:17:15.019Z,10.22
2022-10-10T07:18:15.041Z,10.67
2022-10-10T07:19:15.033Z,10.56
2022-10-10T07:20:15.028Z,10.39
2022-10-10T07:21:15.033Z,10.39
2022-10-10T07:22:15.029Z,10.22
2022-10-10T07:23:15.031Z,10.11
2022-10-10T07:24:15.030Z,10.56
2022-10-10T07:25:15.030Z,10.56
2022-10-10T07:26:15.027Z,10.56
2022-10-10T07:27:15.039Z,10.39
2022-10-10T07:28:15.080Z,10.22
2022-10-10T07:29:15.032Z,10.56
2022-10-10T07:30:15.038Z,10.11
2022-10-10T07:31:15.021Z,10.39
2022-10-10T07:32:15.032Z,10.39
2022-10-10T07:33:15.025Z,11
2022-10-10T07:34:15.054Z,10.56
2022-10-10T07:35:15.032Z,11
2022-10-10T07:36:15.036Z,10.67
2022-10-10T07:37:15.034Z,10.83
2022-10-10T07:38:15.039Z,10.67
2022-10-10T07:39:17.062Z,10.56
2022-10-10T07:40:15.040Z,11
2022-10-10T07:41:15.038Z,10.83
2022-10-10T07:42:15.035Z,11
2022-10-10T07:43:15.032Z,11
2022-10-10T07:44:15.032Z,10.67
2022-10-10T07:45:15.028Z,11
2022-10-10T07:46:15.031Z,10.83
2022-10-10T07:47:15.030Z,10.67
2022-10-10T07:48:15.029Z,10.56
2022-10-10T07:49:15.034Z,10.39
2022-10-10T07:50:15.052Z,10.83
2022-10-10T07:51:15.041Z,10.67
2022-10-10T07:52:15.033Z,10.83
2022-10-10T07:53:15.040Z,10.83
2022-10-10T07:54:15.043Z,10.56
2022-10-10T07:55:15.053Z,10.39
2022-10-10T07:56:15.036Z,10.67
2022-10-10T07:57:15.038Z,10.67
2022-10-10T07:58:15.037Z,10.67
2022-10-10T07:59:15.041Z,10.56
2022-10-10T08:00:15.027Z,10.56
2022-10-10T08:01:15.045Z,10.39
2022-10-10T08:02:15.094Z,10.56
2022-10-10T08:03:15.046Z,10.83
2022-10-10T08:04:15.041Z,11
2022-10-10T08:05:15.044Z,11.28
2022-10-10T08:06:15.059Z,11.11
2022-10-10T08:07:15.042Z,10.67
2022-10-10T08:08:15.042Z,11.11
2022-10-10T08:09:15.045Z,11.44
2022-10-10T08:10:15.044Z,11.44
2022-10-10T08:11:15.046Z,11.44
2022-10-10T08:12:15.052Z,11.44
2022-10-10T08:13:15.043Z,11.83
2022-10-10T08:14:15.047Z,11.94
2022-10-10T08:15:15.060Z,11.44
2022-10-10T08:16:15.047Z,11.28
2022-10-10T08:17:15.046Z,11.83
2022-10-10T08:18:15.045Z,11.72
2022-10-10T08:19:15.048Z,11.94
2022-10-10T08:20:15.057Z,11.94
2022-10-10T08:21:15.054Z,11.94
2022-10-10T08:22:15.071Z,11.94
2022-10-10T08:23:15.050Z,11.83
2022-10-10T08:24:15.062Z,12.28
2022-10-10T08:25:15.055Z,12.28
2022-10-10T08:26:15.074Z,12.11
2022-10-10T08:27:15.068Z,12.11
2022-10-10T08:28:15.071Z,11.83
2022-10-10T08:29:15.070Z,11.94
2022-10-10T08:30:15.058Z,11.83
2022-10-10T08:31:15.054Z,11.83
2022-10-10T08:32:15.065Z,11.61
2022-10-10T08:33:15.064Z,11.83
2022-10-10T08:34:15.057Z,11.72
2022-10-10T08:35:15.056Z,11.44
2022-10-10T08:36:15.054Z,11.44
2022-10-10T08:37:15.065Z,11.11
2022-10-10T08:38:15.078Z,11.44
2022-10-10T08:39:15.051Z,11.61
2022-10-10T08:40:15.061Z,11.72
2022-10-10T08:41:15.055Z,11.83
2022-10-10T08:42:15.054Z,11.83
2022-10-10T08:43:15.061Z,11.83
2022-10-10T08:44:15.054Z,11.94
2022-10-10T08:45:15.067Z,11.61
2022-10-10T08:46:15.067Z,11.44
2022-10-10T08:47:15.056Z,11.44
2022-10-10T08:48:15.067Z,11
2022-10-10T08:49:15.056Z,11.28
2022-10-10T08:50:15.059Z,10.83
2022-10-10T08:51:15.065Z,11.11
2022-10-10T08:52:15.057Z,10.83
2022-10-10T08:53:15.059Z,11.28
2022-10-10T08:54:15.082Z,11.44
2022-10-10T08:55:15.070Z,11.94
2022-10-10T08:56:15.059Z,12.44
2022-10-10T08:57:15.064Z,13.06
2022-10-10T08:58:15.065Z,13.5
2022-10-10T08:59:15.068Z,13.17
2022-10-10T09:00:15.267Z,13.17
2022-10-10T09:01:15.109Z,13.06
2022-10-10T09:02:17.383Z,12.28
2022-10-10T09:03:15.072Z,11.83
2022-10-10T09:04:15.071Z,12.11
2022-10-10T09:05:15.053Z,12.28
2022-10-10T09:06:15.072Z,12.44
2022-10-10T09:07:15.085Z,12.72
2022-10-10T09:08:15.067Z,12.72
2022-10-10T09:09:15.070Z,13.17
2022-10-10T09:10:15.083Z,12.56
2022-10-10T09:11:15.063Z,11.94
2022-10-10T09:12:15.071Z,12.28
2022-10-10T09:13:15.063Z,13.17
2022-10-10T09:14:15.069Z,13.33
2022-10-10T09:15:15.067Z,12.56
2022-10-10T09:16:15.067Z,13.06
2022-10-10T09:17:15.068Z,12.44
2022-10-10T09:18:15.062Z,12.11
2022-10-10T09:19:16.154Z,13.17
2022-10-10T09:20:15.058Z,13.94
2022-10-10T09:21:15.067Z,14.06
2022-10-10T09:22:15.073Z,13.5
2022-10-10T09:23:15.062Z,13.17
2022-10-10T09:24:15.075Z,14.56
2022-10-10T09:25:15.066Z,14.06
2022-10-10T09:26:15.095Z,14.06
2022-10-10T09:27:15.074Z,14.06
2022-10-10T09:28:15.133Z,14.39
2022-10-10T09:29:15.076Z,13.94
2022-10-10T09:30:15.078Z,12.89
2022-10-10T09:31:15.067Z,12.11
2022-10-10T09:32:15.072Z,12.28
2022-10-10T09:33:15.072Z,12.44
2022-10-10T09:34:15.079Z,12
2022-10-10T09:35:15.076Z,12.17
2022-10-10T09:36:15.080Z,12.17
2022-10-10T09:37:24.148Z,12.5
2022-10-10T09:38:15.082Z,12.33
2022-10-10T09:39:15.082Z,12.5
2022-10-10T09:40:15.082Z,12.78
2022-10-10T09:41:15.091Z,12.94
2022-10-10T09:42:15.107Z,12.94
2022-10-10T09:43:15.078Z,13.39
2022-10-10T09:44:15.086Z,13.11
2022-10-10T09:45:15.088Z,13.39
2022-10-10T09:46:15.082Z,13.39
2022-10-10T09:47:15.092Z,12.94
2022-10-10T09:48:15.089Z,12.94
2022-10-10T09:49:15.092Z,13.22
2022-10-10T09:50:15.091Z,12.78
2022-10-10T09:51:15.095Z,13.39
2022-10-10T09:52:15.091Z,13.83
2022-10-10T09:53:15.095Z,13.83
2022-10-10T09:54:15.097Z,13.11
2022-10-10T09:55:15.108Z,12.78
2022-10-10T09:56:15.100Z,12.5
2022-10-10T09:57:15.111Z,13.11
2022-10-10T09:58:15.129Z,12.94
2022-10-10T09:59:15.104Z,12.61
2022-10-10T10:00:15.104Z,13.22
2022-10-10T10:01:15.230Z,13.83
2022-10-10T10:02:15.097Z,13.83
2022-10-10T10:03:15.105Z,13.83
2022-10-10T10:04:30.444Z,14
2022-10-10T10:05:15.110Z,13.83
2022-10-10T10:06:15.117Z,13.56
2022-10-10T10:07:15.119Z,13.56
2022-10-10T10:08:15.109Z,13.39
2022-10-10T10:09:15.117Z,14.28
2022-10-10T10:10:15.113Z,15.06
2022-10-10T10:11:15.127Z,14.61
2022-10-10T10:12:15.127Z,13.67
2022-10-10T10:13:15.127Z,13.56
2022-10-10T10:14:15.174Z,14
2022-10-10T10:15:15.126Z,13.83
2022-10-10T10:16:15.113Z,13.83
2022-10-10T10:17:15.128Z,13.67
2022-10-10T10:18:15.119Z,13.67
2022-10-10T10:19:15.131Z,13.39
2022-10-10T10:20:15.135Z,13.67
2022-10-10T10:21:15.130Z,14.78
2022-10-10T10:22:18.440Z,14.89
2022-10-10T10:23:15.139Z,14.78
2022-10-10T10:24:15.132Z,14.89
2022-10-10T10:25:15.127Z,14.78
2022-10-10T10:26:15.137Z,14.11
2022-10-10T10:27:15.134Z,14.28
2022-10-10T10:28:15.179Z,14.28
2022-10-10T10:29:15.124Z,14.78
2022-10-10T10:30:15.268Z,15.17
2022-10-10T10:31:15.141Z,15.17
2022-10-10T10:32:15.136Z,14.61
2022-10-10T10:33:15.138Z,15.17
2022-10-10T10:34:15.142Z,15.17
2022-10-10T10:35:15.143Z,14.78
2022-10-10T10:36:15.140Z,15.17
2022-10-10T10:37:15.344Z,15.06
2022-10-10T10:38:15.139Z,15.61
2022-10-10T10:39:15.146Z,15.17
2022-10-10T10:40:15.164Z,15.28
2022-10-10T10:41:15.147Z,16.06
2022-10-10T10:42:15.143Z,15.78
2022-10-10T10:43:15.145Z,15.61
2022-10-10T10:44:15.146Z,16.06
2022-10-10T10:45:15.160Z,16.22
2022-10-10T10:46:15.264Z,15.89
2022-10-10T10:47:15.140Z,16.06
2022-10-10T10:48:15.150Z,15.61
2022-10-10T10:49:15.156Z,15.61
2022-10-10T10:50:15.161Z,16.06
2022-10-10T10:51:15.161Z,17
2022-10-10T10:52:15.153Z,17
2022-10-10T10:53:15.156Z,17
2022-10-10T10:54:15.152Z,16.39
2022-10-10T10:55:15.158Z,16.22
2022-10-10T10:56:15.160Z,15.44
2022-10-10T10:57:32.074Z,15.17
2022-10-10T10:58:58.622Z,15.17
2022-10-10T10:59:36.159Z,15.06
2022-10-10T11:00:16.789Z,15.17
2022-10-10T11:01:22.711Z,15.17
2022-10-10T11:02:26.197Z,15.61
2022-10-10T11:03:38.316Z,15.17
2022-10-10T11:05:16.764Z,15.61
2022-10-10T11:05:21.556Z,16.56
2022-10-10T11:06:15.264Z,16.56
2022-10-10T11:07:18.762Z,16.56
2022-10-10T11:08:15.166Z,16.56
2022-10-10T11:09:25.606Z,17
2022-10-10T11:10:15.165Z,17.5
2022-10-10T11:11:15.170Z,17.17
2022-10-10T11:12:15.173Z,17.17
2022-10-10T11:13:15.184Z,16.89
2022-10-10T11:14:15.173Z,16.72
2022-10-10T11:15:15.173Z,16.56
2022-10-10T11:16:30.204Z,16.22
2022-10-10T11:17:15.176Z,17
2022-10-10T11:18:15.200Z,17.17
2022-10-10T11:19:15.181Z,17.5
2022-10-10T11:20:15.181Z,16.89
2022-10-10T11:21:15.184Z,16.56
2022-10-10T11:22:15.182Z,16.56
2022-10-10T11:23:15.187Z,16.39
2022-10-10T11:24:15.194Z,16.39
2022-10-10T11:25:15.189Z,16.06
2022-10-10T11:26:15.193Z,17.83
2022-10-10T11:27:15.180Z,18.44
2022-10-10T11:28:15.259Z,18.17
2022-10-10T11:29:15.191Z,18.44
2022-10-10T11:30:15.185Z,17.83
2022-10-10T11:31:15.192Z,18.44
2022-10-10T11:32:15.214Z,19.06
2022-10-10T11:33:15.185Z,19.44
2022-10-10T11:34:15.208Z,18.94
2022-10-10T11:35:15.190Z,17.67
2022-10-10T11:36:15.187Z,16.72
2022-10-10T11:37:15.192Z,16.56
2022-10-10T11:38:15.192Z,17
2022-10-10T11:39:15.563Z,17.67
2022-10-10T11:40:15.200Z,17.5
2022-10-10T11:41:15.186Z,17.83
2022-10-10T11:42:15.188Z,17.67
2022-10-10T11:43:15.195Z,17.67
2022-10-10T11:44:15.195Z,18.61
2022-10-10T11:45:15.201Z,18.78
2022-10-10T11:46:15.197Z,19.44
2022-10-10T11:47:15.211Z,18.94
2022-10-10T11:48:15.203Z,18.94
2022-10-10T11:49:15.190Z,18.94
2022-10-10T11:50:15.231Z,18.17
2022-10-10T11:51:16.305Z,18.78
2022-10-10T11:52:32.799Z,18.94
2022-10-10T11:53:15.188Z,18.94
2022-10-10T11:54:15.204Z,18.44
2022-10-10T11:55:15.193Z,18.44
2022-10-10T11:56:15.199Z,19.06
2022-10-10T11:57:15.199Z,19.44
2022-10-10T11:58:15.204Z,19.44
2022-10-10T11:59:15.205Z,18.94
2022-10-10T12:00:15.207Z,18.78
2022-10-10T12:01:15.207Z,17.83
2022-10-10T12:02:15.205Z,17.83
2022-10-10T12:03:15.201Z,18.28
2022-10-10T12:04:15.206Z,17.61
2022-10-10T12:05:15.203Z,17.67
2022-10-10T12:06:15.218Z,18.17
2022-10-10T12:07:15.199Z,18.56
2022-10-10T12:08:17.730Z,18.56
2022-10-10T12:09:15.201Z,18.94
2022-10-10T12:10:15.205Z,19.28
2022-10-10T12:11:15.204Z,19.78
2022-10-10T12:12:15.211Z,19.94
2022-10-10T12:13:15.197Z,19.83
2022-10-10T12:14:15.199Z,19.94
2022-10-10T12:15:15.212Z,20.11
2022-10-10T12:16:15.214Z,19.61
2022-10-10T12:17:15.210Z,20.11
2022-10-10T12:18:15.217Z,20.11
2022-10-10T12:19:15.212Z,20.22
2022-10-10T12:20:15.231Z,20.11
2022-10-10T12:21:15.206Z,20.22
2022-10-10T12:22:18.732Z,19.94
2022-10-10T12:23:15.208Z,20.11
2022-10-10T12:24:15.213Z,20.11
2022-10-10T12:25:15.217Z,19.61
2022-10-10T12:26:15.217Z,19.61
2022-10-10T12:27:15.211Z,19.61
2022-10-10T12:28:15.300Z,19.33
2022-10-10T12:29:15.221Z,19.61
2022-10-10T12:30:15.215Z,19.83
2022-10-10T12:31:15.213Z,20.11
2022-10-10T12:32:15.228Z,20.72
2022-10-10T12:33:15.221Z,21.06
2022-10-10T12:34:15.219Z,20.11
2022-10-10T12:35:15.222Z,19.33
2022-10-10T12:36:15.219Z,18.94
2022-10-10T12:37:15.221Z,19.61
2022-10-10T12:38:15.240Z,19.61
2022-10-10T12:39:15.221Z,19.94
2022-10-10T12:40:15.224Z,19.94
2022-10-10T12:41:15.227Z,19.83
2022-10-10T12:42:15.218Z,20.11
2022-10-10T12:43:15.225Z,19.33
2022-10-10T12:44:15.232Z,19.44
2022-10-10T12:45:15.228Z,19.61
2022-10-10T12:46:15.230Z,19.61
2022-10-10T12:47:15.237Z,19.94
2022-10-10T12:48:15.224Z,20.22
2022-10-10T12:49:15.239Z,19.94
2022-10-10T12:50:15.234Z,20.11
2022-10-10T12:51:15.234Z,19.61
2022-10-10T12:52:15.239Z,20.39
2022-10-10T12:53:15.227Z,20.22
2022-10-10T12:54:15.300Z,20.56
2022-10-10T12:55:15.227Z,20.22
2022-10-10T12:56:15.238Z,20.22
2022-10-10T12:57:15.242Z,19.94
2022-10-10T12:58:26.003Z,21.06
2022-10-10T12:59:15.237Z,20.72
2022-10-10T13:00:15.240Z,20.72
2022-10-10T13:01:15.275Z,19.83
2022-10-10T13:02:15.245Z,19.83
2022-10-10T13:03:15.242Z,20.22
2022-10-10T13:04:15.253Z,19.94
2022-10-10T13:05:15.246Z,20.11
2022-10-10T13:06:15.246Z,20.11
2022-10-10T13:07:15.245Z,20.11
2022-10-10T13:08:15.248Z,20.11
2022-10-10T13:09:15.252Z,20.11
2022-10-10T13:10:15.270Z,20.56